Time;durP1;ratioP1;P1;durP2;ratioP2;P2;SDS_P1;SDS_P2;PMS_P1;PMS_P2;Temp;Humidity;BMP_temperature;BMP_pressure;BME280_temperature;BME280_humidity;BME280_pressure;Samples;Min_cycle;Max_cycle;Signal;HPM_P1;HPM_P2
2023/04/05 00:02:17;;;;;;;14.00;10.10;;;;;;;1.41;100.00;94360.69;5075615;28;20209;-75
2023/04/05 00:04:49;;;;;;;18.38;10.98;;;;;;;1.50;100.00;94365.34;5074984;28;20204;-75
2023/04/05 00:07:17;;;;;;;10.02;8.85;;;;;;;1.43;100.00;94359.69;5075471;28;20272;-74
2023/04/05 00:09:45;;;;;;;13.80;10.95;;;;;;;1.45;100.00;94354.47;5075511;28;20221;-76
2023/04/05 00:12:13;;;;;;;11.48;9.57;;;;;;;1.53;100.00;94360.84;5075008;28;20566;-74
2023/04/05 00:14:40;;;;;;;13.45;9.38;;;;;;;1.55;100.00;94363.34;5056083;28;20217;-75
2023/04/05 00:17:07;;;;;;;15.60;10.32;;;;;;;1.50;100.00;94358.44;5075340;28;20206;-75
2023/04/05 00:19:35;;;;;;;8.88;7.90;;;;;;;1.39;100.00;94355.63;5075358;28;20190;-75
2023/04/05 00:22:02;;;;;;;15.70;9.88;;;;;;;1.37;100.00;94360.06;5075293;28;20206;-76
2023/04/05 00:24:29;;;;;;;14.15;9.77;;;;;;;1.33;100.00;94360.31;5056039;28;20202;-74
2023/04/05 00:26:57;;;;;;;13.43;8.90;;;;;;;1.37;100.00;94364.38;5056257;28;20225;-75
2023/04/05 00:29:25;;;;;;;14.23;9.38;;;;;;;1.46;100.00;94369.03;5074710;28;20217;-75
2023/04/05 00:31:52;;;;;;;13.55;10.65;;;;;;;1.45;100.00;94367.38;5074834;28;20210;-74
2023/04/05 00:34:19;;;;;;;14.15;9.77;;;;;;;1.44;100.00;94365.69;5039382;28;20209;-75
2023/04/05 00:36:45;;;;;;;13.75;9.50;;;;;;;1.47;100.00;94378.47;5039670;28;20229;-74
2023/04/05 00:39:12;;;;;;;16.30;9.53;;;;;;;1.46;100.00;94372.47;5055948;28;20198;-75
2023/04/05 00:41:39;;;;;;;13.45;8.85;;;;;;;1.51;100.00;94364.44;5074625;28;20923;-74
2023/04/05 00:44:06;;;;;;;10.73;8.68;;;;;;;1.50;100.00;94370.53;5039510;28;20220;-75
2023/04/05 00:46:36;;;;;;;11.05;8.40;;;;;;;1.52;100.00;94372.09;5074776;28;20284;-75
2023/04/05 00:49:03;;;;;;;12.10;9.02;;;;;;;1.50;100.00;94371.38;5075069;28;20616;-74
2023/04/05 00:51:32;;;;;;;8.32;6.82;;;;;;;1.64;100.00;94374.88;5074656;28;20201;-75
2023/04/05 00:54:00;;;;;;;9.30;7.53;;;;;;;1.62;100.00;94374.97;5039376;28;20226;-75
2023/04/05 00:56:28;;;;;;;8.18;6.97;;;;;;;1.58;100.00;94360.56;5074397;28;20710;-74
2023/04/05 00:58:55;;;;;;;10.38;8.50;;;;;;;1.59;100.00;94371.75;5074500;28;20301;-75
2023/04/05 01:01:23;;;;;;;11.88;8.02;;;;;;;1.61;100.00;94369.91;5074742;28;20658;-76
2023/04/05 01:03:53;;;;;;;11.15;7.00;;;;;;;1.56;100.00;94375.34;5074675;28;20199;-74
2023/04/05 01:06:32;;;;;;;8.57;7.03;;;;;;;1.54;100.00;94372.00;5074207;28;20522;-74
2023/04/05 01:09:05;;;;;;;9.93;7.55;;;;;;;1.46;100.00;94372.47;5074082;28;20252;-76
2023/04/05 01:11:34;;;;;;;8.57;7.40;;;;;;;1.46;99.68;94375.06;5074570;28;20206;-75
2023/04/05 01:14:02;;;;;;;7.57;6.40;;;;;;;1.47;99.96;94379.28;5074156;28;20613;-76
2023/04/05 01:16:29;;;;;;;12.55;7.30;;;;;;;1.47;99.80;94376.72;5074080;28;20209;-75
2023/04/05 01:18:58;;;;;;;9.90;7.40;;;;;;;1.53;99.93;94376.34;5074555;28;20271;-75
2023/04/05 01:21:52;;;;;;;9.13;6.65;;;;;;;1.60;100.00;94376.00;5073883;28;20275;-75
2023/04/05 01:24:37;;;;;;;6.65;5.97;;;;;;;1.55;99.32;94390.03;5073917;28;20255;-75
2023/04/05 01:27:08;;;;;;;8.35;7.15;;;;;;;1.54;99.67;94385.78;5074197;28;20193;-75
2023/04/05 01:29:47;;;;;;;7.40;6.65;;;;;;;1.60;99.50;94397.50;5074082;28;20194;-75
2023/04/05 01:32:22;;;;;;;9.60;7.47;;;;;;;1.61;98.85;94388.81;5073821;28;20209;-74
2023/04/05 01:34:54;;;;;;;8.95;6.57;;;;;;;1.64;99.01;94388.66;5073750;28;20198;-74
2023/04/05 01:37:26;;;;;;;13.02;7.78;;;;;;;1.67;99.44;94391.06;5073993;28;20201;-73
2023/04/05 01:39:53;;;;;;;8.77;6.65;;;;;;;1.69;99.49;94385.78;5073585;28;20293;-75
2023/04/05 01:42:25;;;;;;;7.78;6.47;;;;;;;1.74;99.15;94382.03;5073593;28;20210;-74
2023/04/05 01:44:55;;;;;;;10.25;8.27;;;;;;;1.86;99.98;94386.47;5054913;28;20293;-75
2023/04/05 01:47:21;;;;;;;9.77;7.60;;;;;;;1.85;98.64;94389.97;5073766;28;20209;-75
2023/04/05 01:49:48;;;;;;;11.23;7.60;;;;;;;1.88;98.87;94388.13;5073523;28;20213;-75
2023/04/05 01:52:15;;;;;;;8.57;6.35;;;;;;;1.79;98.26;94390.34;5073077;28;20202;-75
2023/04/05 01:54:42;;;;;;;6.57;5.65;;;;;;;1.79;97.67;94387.75;5073405;28;20255;-75
2023/04/05 01:57:08;;;;;;;9.20;7.05;;;;;;;1.82;97.61;94403.09;5073270;28;20202;-75
2023/04/05 01:59:35;;;;;;;6.53;5.85;;;;;;;1.79;97.39;94386.94;5053817;28;20205;-75
2023/04/05 02:02:03;;;;;;;7.30;5.60;;;;;;;1.72;97.48;94396.78;5073112;28;20251;-74
2023/04/05 02:04:30;;;;;;;8.30;6.43;;;;;;;1.71;97.65;94391.69;5073188;28;20600;-75
2023/04/05 02:06:57;;;;;;;8.15;6.20;;;;;;;1.68;98.29;94395.28;5073105;28;20295;-75
2023/04/05 02:09:23;;;;;;;7.32;5.63;;;;;;;1.68;97.79;94392.72;5072798;28;20605;-75
2023/04/05 02:11:50;;;;;;;10.20;6.78;;;;;;;1.66;97.83;94393.72;5072898;28;20730;-74
2023/04/05 02:14:17;;;;;;;6.22;5.63;;;;;;;1.73;97.76;94392.44;5072611;28;20222;-75
2023/04/05 02:16:44;;;;;;;6.50;5.90;;;;;;;1.71;96.73;94384.78;5072742;28;20198;-75
2023/04/05 02:19:12;;;;;;;6.45;5.75;;;;;;;1.70;97.70;94390.88;5072535;28;20236;-74
2023/04/05 02:21:39;;;;;;;7.63;5.55;;;;;;;1.74;98.19;94391.56;5072397;28;20280;-75
2023/04/05 02:24:06;;;;;;;6.05;5.35;;;;;;;1.75;98.27;94394.03;5053940;28;20740;-75
2023/04/05 02:26:33;;;;;;;7.60;6.45;;;;;;;1.77;97.72;94399.97;5072246;28;20209;-75
2023/04/05 02:29:00;;;;;;;12.75;7.85;;;;;;;1.89;97.78;94394.97;5073117;28;20214;-75
2023/04/05 02:31:27;;;;;;;5.88;5.30;;;;;;;1.93;96.95;94399.03;5072969;28;20198;-74
2023/04/05 02:33:54;;;;;;;6.20;5.60;;;;;;;1.84;97.27;94387.50;5072635;28;20295;-75
2023/04/05 02:36:23;;;;;;;9.10;6.07;;;;;;;1.99;96.45;94403.84;5072132;28;20255;-75
2023/04/05 02:38:49;;;;;;;8.10;6.70;;;;;;;2.05;95.96;94399.16;5072246;28;20661;-75
2023/04/05 02:41:18;;;;;;;8.48;7.15;;;;;;;2.12;96.18;94394.44;5072485;28;20424;-75
2023/04/05 02:43:45;;;;;;;7.77;6.20;;;;;;;2.08;95.87;94387.78;5072399;28;20206;-75
2023/04/05 02:46:12;;;;;;;6.65;5.95;;;;;;;1.96;95.47;94383.31;5071857;28;20443;-75
2023/04/05 02:48:39;;;;;;;6.20;5.20;;;;;;;1.87;96.25;94387.31;5072238;28;20205;-74
2023/04/05 02:51:06;;;;;;;7.68;5.70;;;;;;;1.85;96.72;94391.75;5071896;28;20677;-75
2023/04/05 02:53:34;;;;;;;7.22;5.70;;;;;;;1.84;97.39;94380.56;5072329;28;20236;-74
2023/04/05 02:56:01;;;;;;;7.30;5.80;;;;;;;1.80;96.35;94389.44;5072236;28;20246;-74
2023/04/05 02:58:28;;;;;;;6.50;5.90;;;;;;;1.85;96.68;94381.38;5071982;28;20542;-75
2023/04/05 03:00:55;;;;;;;6.50;5.77;;;;;;;1.88;97.11;94386.38;5053455;28;20531;-75
2023/04/05 03:03:22;;;;;;;10.87;5.53;;;;;;;1.88;98.61;94382.97;5071815;28;20456;-75
2023/04/05 03:05:58;;;;;;;8.02;6.55;;;;;;;1.83;97.55;94378.91;5072095;28;20498;-75
2023/04/05 03:08:24;;;;;;;6.27;5.70;;;;;;;1.81;97.56;94380.75;5072379;28;20270;-75
2023/04/05 03:10:52;;;;;;;7.55;6.75;;;;;;;1.81;98.13;94391.09;5072614;28;20833;-75
2023/04/05 03:13:19;;;;;;;6.90;6.25;;;;;;;1.84;97.21;94383.16;5071710;28;20259;-75
2023/04/05 03:15:46;;;;;;;6.57;5.97;;;;;;;1.85;98.02;94389.97;5071845;28;20202;-75
2023/04/05 03:18:13;;;;;;;7.13;6.43;;;;;;;1.88;97.66;94388.13;5071805;28;20215;-74
2023/04/05 03:20:40;;;;;;;6.53;5.93;;;;;;;1.83;97.62;94378.91;5036678;28;20444;-75
2023/04/05 03:23:07;;;;;;;7.85;6.63;;;;;;;1.80;97.74;94380.84;5072107;28;20448;-75
2023/04/05 03:25:36;;;;;;;9.45;7.65;;;;;;;1.86;99.25;94381.28;5071928;28;20410;-75
2023/04/05 03:28:07;;;;;;;10.00;7.10;;;;;;;1.85;98.92;94381.38;5072124;28;20241;-75
2023/04/05 03:30:34;;;;;;;8.90;7.73;;;;;;;1.91;98.20;94381.03;5071630;28;20943;-75
2023/04/05 03:33:01;;;;;;;6.83;6.00;;;;;;;1.92;98.33;94384.44;5074311;28;20559;-75
2023/04/05 03:35:28;;;;;;;6.68;5.97;;;;;;;1.94;98.18;94390.34;5076195;28;20456;-74
2023/04/05 03:37:55;;;;;;;7.63;6.60;;;;;;;1.89;97.34;94389.81;5076190;28;20293;-74
2023/04/05 03:40:22;;;;;;;8.73;7.30;;;;;;;1.89;97.35;94394.97;5075868;28;20718;-74
2023/04/05 03:42:49;;;;;;;7.53;6.05;;;;;;;1.84;98.03;94387.50;5076003;28;20206;-75
2023/04/05 03:45:17;;;;;;;9.48;6.80;;;;;;;1.82;98.28;94395.34;5075583;28;20211;-75
2023/04/05 03:47:44;;;;;;;9.73;6.55;;;;;;;1.85;99.10;94396.91;5075840;28;20209;-74
2023/04/05 03:50:11;;;;;;;7.00;6.30;;;;;;;1.99;100.00;94406.44;5075612;28;20213;-75
2023/04/05 03:52:38;;;;;;;8.07;6.68;;;;;;;1.99;98.11;94403.84;5075784;28;20722;-74
2023/04/05 03:55:05;;;;;;;6.80;6.20;;;;;;;1.99;99.11;94409.84;5075181;28;20206;-76
2023/04/05 03:57:32;;;;;;;9.35;6.80;;;;;;;2.01;98.73;94408.00;5076155;28;20617;-74
2023/04/05 03:59:59;;;;;;;9.60;7.78;;;;;;;2.10;100.00;94411.81;5075271;28;20216;-75
2023/04/05 04:02:27;;;;;;;8.90;8.00;;;;;;;2.26;100.00;94414.31;5074444;28;20434;-75
2023/04/05 04:04:54;;;;;;;10.80;8.57;;;;;;;2.23;100.00;94402.38;5075771;28;20210;-75
2023/04/05 04:07:21;;;;;;;8.27;7.50;;;;;;;2.17;100.00;94407.94;5076329;28;20507;-76
2023/04/05 04:09:47;;;;;;;8.47;7.37;;;;;;;2.08;100.00;94409.31;5041769;28;20206;-74
2023/04/05 04:12:14;;;;;;;8.03;7.23;;;;;;;2.05;100.00;94419.84;5057440;28;20490;-78
2023/04/05 04:14:41;;;;;;;9.30;7.20;;;;;;;2.05;100.00;94421.63;5076976;28;20479;-75
2023/04/05 04:17:08;;;;;;;8.80;7.70;;;;;;;2.04;100.00;94420.78;5076189;28;20436;-74
2023/04/05 04:19:36;;;;;;;9.82;6.85;;;;;;;2.03;100.00;94418.28;5076077;28;20202;-75
2023/04/05 04:22:03;;;;;;;11.73;7.18;;;;;;;1.98;100.00;94422.88;5076160;28;20649;-76
2023/04/05 04:24:31;;;;;;;7.97;6.80;;;;;;;1.85;100.00;94417.59;5076272;28;20194;-76
2023/04/05 04:26:58;;;;;;;11.32;8.40;;;;;;;1.99;100.00;94421.94;5075368;28;20252;-80
2023/04/05 04:29:29;;;;;;;8.82;7.28;;;;;;;1.94;100.00;94417.06;5076523;28;20554;-76
2023/04/05 04:31:56;;;;;;;9.13;7.30;;;;;;;1.93;100.00;94422.31;5076216;28;20927;-75
2023/04/05 04:34:24;;;;;;;7.85;6.60;;;;;;;1.98;100.00;94433.22;5075960;28;20492;-75
2023/04/05 04:36:59;;;;;;;8.60;6.63;;;;;;;2.06;100.00;94431.88;5076096;28;20243;-77
2023/04/05 04:39:30;;;;;;;9.53;7.80;;;;;;;2.10;100.00;94423.00;5056008;28;20460;-76
2023/04/05 04:41:57;;;;;;;7.50;6.80;;;;;;;2.12;100.00;94430.66;5056400;28;20463;-76
2023/04/05 04:44:29;;;;;;;10.00;6.80;;;;;;;2.06;100.00;94426.69;5058836;28;20199;-76
2023/04/05 04:46:56;;;;;;;9.55;6.95;;;;;;;2.05;99.81;94419.03;5074658;28;20443;-75
2023/04/05 04:49:23;;;;;;;10.83;8.17;;;;;;;2.12;100.00;94426.31;5074581;28;20198;-76
2023/04/05 04:51:51;;;;;;;8.27;6.97;;;;;;;2.11;99.00;94427.25;5074564;28;20440;-75
2023/04/05 04:54:20;;;;;;;11.30;8.50;;;;;;;2.04;99.29;94436.31;5074686;28;20495;-75
2023/04/05 04:56:47;;;;;;;9.63;7.45;;;;;;;2.15;99.87;94441.66;5055629;28;20390;-75
2023/04/05 04:59:14;;;;;;;6.75;5.95;;;;;;;2.26;100.00;94438.44;5074584;28;20273;-74
2023/04/05 05:01:44;;;;;;;7.50;6.50;;;;;;;2.31;100.00;94436.41;5074395;28;20587;-74
2023/04/05 05:04:11;;;;;;;9.70;7.60;;;;;;;2.28;98.22;94436.59;5074445;28;20445;-75
2023/04/05 05:06:38;;;;;;;19.97;13.87;;;;;;;2.33;97.83;94446.69;5074431;28;20883;-74
2023/04/05 05:09:06;;;;;;;13.27;9.60;;;;;;;2.41;98.91;94445.28;5074559;28;20520;-76
2023/04/05 05:11:33;;;;;;;7.63;6.83;;;;;;;2.41;96.28;94441.88;5074093;28;20528;-76
2023/04/05 05:14:00;;;;;;;15.68;10.77;;;;;;;2.41;96.38;94436.69;5074102;28;20488;-76
2023/04/05 05:16:27;;;;;;;11.57;9.10;;;;;;;3.69;100.00;94447.59;5074223;28;20228;-75
2023/04/05 05:18:54;;;;;;;8.50;7.07;;;;;;;3.26;91.92;94461.66;5073909;28;20961;-77
2023/04/05 05:21:21;;;;;;;7.40;6.70;;;;;;;3.06;91.73;94461.13;5074346;28;20858;-75
2023/04/05 05:23:49;;;;;;;7.17;6.43;;;;;;;3.01;92.20;94462.34;5074008;28;20448;-75
2023/04/05 05:26:17;;;;;;;6.67;5.20;;;;;;;2.91;92.99;94463.88;5073485;28;20478;-75
2023/04/05 05:28:44;;;;;;;7.47;5.57;;;;;;;2.88;93.59;94467.44;5078244;28;20432;-75
2023/04/05 05:31:13;;;;;;;6.40;5.10;;;;;;;2.77;94.20;94457.75;5074080;28;21250;-75
2023/04/05 05:33:39;;;;;;;6.68;6.00;;;;;;;2.61;93.09;94451.88;5073514;28;21081;-74
2023/04/05 05:36:07;;;;;;;8.83;6.77;;;;;;;2.59;94.83;94458.03;5073647;28;20209;-74
2023/04/05 05:38:34;;;;;;;6.27;5.20;;;;;;;2.61;94.31;94453.63;5073542;28;20454;-75
2023/04/05 05:41:01;;;;;;;6.80;5.60;;;;;;;2.53;93.29;94453.22;5073852;28;20440;-74
2023/04/05 05:43:29;;;;;;;6.00;4.80;;;;;;;2.48;94.26;94462.13;5073629;28;20656;-74
2023/04/05 05:45:56;;;;;;;5.17;4.77;;;;;;;2.43;93.45;94453.81;5073291;28;20444;-75
2023/04/05 05:48:22;;;;;;;6.97;4.70;;;;;;;2.40;94.07;94448.81;5073499;28;20455;-74
2023/04/05 05:50:49;;;;;;;8.80;5.80;;;;;;;2.55;94.48;94446.19;5073792;28;20448;-75
2023/04/05 05:53:16;;;;;;;7.03;5.90;;;;;;;2.58;94.98;94448.59;5074792;28;20457;-74
2023/04/05 05:55:43;;;;;;;6.60;5.03;;;;;;;2.52;93.25;94449.81;5073607;28;20202;-75
2023/04/05 05:58:10;;;;;;;6.73;4.73;;;;;;;2.49;92.81;94445.66;5074409;28;20838;-74
2023/04/05 06:00:38;;;;;;;7.17;5.30;;;;;;;2.56;92.43;94453.03;5073703;28;20477;-75
2023/04/05 06:03:05;;;;;;;6.70;5.15;;;;;;;2.55;92.26;94457.41;5055299;28;20523;-76
2023/04/05 06:05:32;;;;;;;8.67;7.03;;;;;;;2.73;93.48;94465.81;5074209;28;20307;-75
2023/04/05 06:07:59;;;;;;;5.17;4.77;;;;;;;2.87;91.94;94465.78;5074317;28;20448;-76
2023/04/05 06:10:26;;;;;;;5.00;4.57;;;;;;;3.08;92.95;94455.84;5074204;28;20502;-76
2023/04/05 06:12:52;;;;;;;7.00;5.60;;;;;;;3.19;90.46;94465.56;5074385;28;20444;-75
2023/04/05 06:15:19;;;;;;;13.33;6.87;;;;;;;3.18;89.28;94466.47;5074161;28;20484;-76
2023/04/05 06:17:47;;;;;;;6.63;5.73;;;;;;;3.28;89.20;94468.41;5074281;28;20494;-76
2023/04/05 06:20:14;;;;;;;10.33;7.50;;;;;;;3.41;89.66;94463.25;5074616;28;20429;-76
2023/04/05 06:22:41;;;;;;;8.40;6.40;;;;;;;3.26;87.23;94474.63;5056232;28;20452;-76
2023/04/05 06:25:11;;;;;;;6.90;5.53;;;;;;;3.40;88.19;94466.78;5074598;28;20432;-76
2023/04/05 06:27:37;;;;;;;25.83;6.70;;;;;;;3.42;87.84;94470.94;5074571;28;20433;-77
2023/04/05 06:30:05;;;;;;;5.20;3.70;;;;;;;3.28;86.97;94477.94;5074375;28;20439;-75
2023/04/05 06:32:31;;;;;;;6.70;5.60;;;;;;;3.35;87.26;94468.84;5074672;28;20907;-75
2023/04/05 06:35:00;;;;;;;3.83;3.53;;;;;;;3.37;88.94;94475.59;5074319;28;21048;-77
2023/04/05 06:37:27;;;;;;;4.10;3.80;;;;;;;3.39;87.29;94471.13;5074016;28;20448;-76
2023/04/05 06:39:54;;;;;;;11.83;5.30;;;;;;;3.53;86.65;94475.47;5074226;28;20498;-77
2023/04/05 06:42:20;;;;;;;9.43;5.47;;;;;;;3.57;87.22;94482.13;5074385;28;20440;-77
2023/04/05 06:44:47;;;;;;;21.43;7.83;;;;;;;3.59;87.52;94485.44;5074541;28;20436;-77
2023/04/05 06:47:14;;;;;;;6.60;6.00;;;;;;;3.62;88.01;94479.22;5073920;28;20440;-78
2023/04/05 06:49:41;;;;;;;15.30;8.00;;;;;;;3.63;86.63;94481.72;5073980;28;20946;-79
2023/04/05 06:52:09;;;;;;;4.87;4.20;;;;;;;3.82;91.13;94468.38;5074643;28;20498;-78
2023/04/05 06:54:37;;;;;;;5.27;4.53;;;;;;;3.85;86.76;94491.53;5074072;28;20492;-77
2023/04/05 06:57:04;;;;;;;12.87;5.03;;;;;;;3.93;86.64;94491.03;5055532;28;20577;-77
2023/04/05 06:59:31;;;;;;;7.03;6.03;;;;;;;3.89;86.16;94503.38;5084351;28;20467;-77
2023/04/05 07:01:58;;;;;;;5.40;5.00;;;;;;;4.02;85.30;94508.59;5089374;28;20445;-77
2023/04/05 07:04:25;;;;;;;6.17;3.37;;;;;;;4.05;84.67;94511.00;5076156;28;20485;-78
2023/04/05 07:06:52;;;;;;;5.43;5.03;;;;;;;4.09;83.42;94509.88;5093373;28;20468;-79
2023/04/05 07:09:23;;;;;;;5.00;3.97;;;;;;;4.22;84.75;94515.09;5093180;28;20434;-79
2023/04/05 07:11:49;;;;;;;4.93;4.00;;;;;;;4.27;83.46;94513.84;5088447;28;20429;-76
2023/04/05 07:14:16;;;;;;;6.87;5.20;;;;;;;4.31;81.73;94530.88;5083154;28;20877;-77
2023/04/05 07:16:43;;;;;;;9.20;3.93;;;;;;;4.51;87.38;94501.00;5092862;28;20440;-77
2023/04/05 07:19:13;;;;;;;9.53;4.43;;;;;;;4.51;82.98;94523.53;5091957;28;20462;-77
2023/04/05 07:21:39;;;;;;;5.33;3.90;;;;;;;4.44;81.17;94527.50;5062865;28;20502;-77
2023/04/05 07:24:07;;;;;;;4.50;4.10;;;;;;;4.35;83.93;94519.38;5087506;28;20412;-78
2023/04/05 07:26:36;;;;;;;4.03;3.50;;;;;;;4.15;80.64;94530.25;5087962;28;20470;-78
2023/04/05 07:29:03;;;;;;;4.37;3.20;;;;;;;4.06;83.46;94515.28;5073207;28;20533;-80
2023/04/05 07:31:31;;;;;;;5.00;4.10;;;;;;;4.09;84.60;94522.88;5073549;28;20460;-77
2023/04/05 07:34:00;;;;;;;8.00;4.67;;;;;;;4.23;83.57;94525.38;5073808;28;20440;-78
2023/04/05 07:36:29;;;;;;;9.23;5.67;;;;;;;4.27;85.05;94521.63;5073060;28;20472;-76
2023/04/05 07:38:56;;;;;;;9.23;6.30;;;;;;;4.19;86.67;94531.69;5073900;28;20781;-76
2023/04/05 07:41:25;;;;;;;9.03;6.37;;;;;;;4.06;81.86;94523.06;5073332;28;20551;-76
2023/04/05 07:43:53;;;;;;;10.73;6.20;;;;;;;4.16;81.92;94542.28;5073046;28;20445;-77
2023/04/05 07:46:21;;;;;;;4.67;4.20;;;;;;;4.16;83.40;94538.88;5071476;28;20451;-78
2023/04/05 07:48:47;;;;;;;3.60;2.77;;;;;;;4.02;81.82;94540.56;5073432;28;21025;-78
2023/04/05 07:51:14;;;;;;;3.20;2.90;;;;;;;3.99;83.16;94537.34;5073162;28;20499;-78
2023/04/05 07:53:41;;;;;;;5.30;3.70;;;;;;;3.95;81.08;94544.50;5072584;28;20452;-76
2023/04/05 07:56:10;;;;;;;3.53;2.80;;;;;;;3.92;82.53;94533.50;5072287;28;20545;-77
2023/04/05 07:58:39;;;;;;;5.50;3.57;;;;;;;3.89;82.46;94541.47;5073067;28;20498;-74
2023/04/05 08:01:08;;;;;;;6.33;4.73;;;;;;;3.89;83.60;94549.28;5073168;28;20440;-74
2023/04/05 08:03:38;;;;;;;10.00;4.30;;;;;;;3.90;83.36;94553.53;5072919;28;20919;-78
2023/04/05 08:06:11;;;;;;;4.00;3.60;;;;;;;3.98;85.74;94546.06;5073179;28;20472;-75
2023/04/05 08:08:38;;;;;;;4.90;4.50;;;;;;;4.13;84.16;94555.47;5072725;28;20455;-75
2023/04/05 08:11:05;;;;;;;15.77;7.57;;;;;;;4.38;85.92;94553.88;5072087;28;20448;-75
2023/04/05 08:13:32;;;;;;;10.27;5.03;;;;;;;4.25;79.41;94556.44;5072611;28;20444;-77
2023/04/05 08:15:59;;;;;;;3.80;3.50;;;;;;;4.21;79.93;94555.81;5072014;28;20491;-78
2023/04/05 08:18:28;;;;;;;4.10;3.70;;;;;;;4.25;80.93;94561.63;5073949;28;20501;-76
2023/04/05 08:20:55;;;;;;;4.60;3.23;;;;;;;4.11;80.31;94562.53;5076671;28;20497;-76
2023/04/05 08:23:22;;;;;;;3.97;3.57;;;;;;;3.90;78.60;94566.50;5076657;28;20988;-77
2023/04/05 08:25:50;;;;;;;5.90;4.47;;;;;;;3.87;81.06;94566.69;5076898;28;20569;-76
2023/04/05 08:28:17;;;;;;;6.73;3.83;;;;;;;3.86;81.16;94559.84;5077024;28;20804;-76
2023/04/05 08:30:44;;;;;;;7.57;4.80;;;;;;;3.80;80.89;94560.25;5076565;28;20447;-77
2023/04/05 08:33:11;;;;;;;12.63;6.83;;;;;;;3.94;82.22;94560.19;5076643;28;20432;-77
2023/04/05 08:35:40;;;;;;;19.17;7.07;;;;;;;3.86;81.47;94554.66;5076455;28;20491;-75
2023/04/05 08:38:07;;;;;;;9.03;5.40;;;;;;;3.92;82.44;94562.88;5076568;28;20440;-77
2023/04/05 08:40:40;;;;;;;8.53;5.57;;;;;;;3.92;82.03;94569.84;5057734;28;20498;-76
2023/04/05 08:43:11;;;;;;;6.53;3.70;;;;;;;3.87;81.97;94575.31;5076118;28;20950;-77
2023/04/05 08:45:46;;;;;;;6.83;4.77;;;;;;;3.98;83.14;94570.25;5076480;28;20488;-77
2023/04/05 08:48:13;;;;;;;22.03;8.43;;;;;;;4.06;81.98;94572.38;5076479;28;20447;-77
2023/04/05 08:50:41;;;;;;;11.43;5.80;;;;;;;4.20;84.94;94593.09;5076344;28;20447;-77
2023/04/05 08:53:09;;;;;;;14.73;6.63;;;;;;;4.24;80.43;94586.75;5076285;28;20456;-78
2023/04/05 08:55:36;;;;;;;5.60;4.57;;;;;;;4.24;78.88;94591.13;5076120;28;20902;-77
2023/04/05 08:58:12;;;;;;;2.87;2.57;;;;;;;4.29;83.74;94591.66;5076149;28;21184;-78
2023/04/05 09:00:41;;;;;;;7.57;4.07;;;;;;;4.27;81.31;94594.34;5076149;28;20802;-77
2023/04/05 09:03:12;;;;;;;12.90;7.50;;;;;;;4.10;79.31;94591.19;5075791;28;21218;-77
2023/04/05 09:05:43;;;;;;;6.33;5.07;;;;;;;4.21;81.30;94597.34;5076103;28;20476;-77
2023/04/05 09:08:10;;;;;;;4.83;3.93;;;;;;;4.12;80.21;94592.75;5057390;28;20428;-79
2023/04/05 09:10:36;;;;;;;3.77;3.47;;;;;;;4.01;78.89;94590.84;5075543;28;20938;-78
2023/04/05 09:13:03;;;;;;;5.47;3.53;;;;;;;3.97;79.76;94596.31;5075627;28;20433;-79
2023/04/05 09:15:30;;;;;;;9.27;5.50;;;;;;;4.10;82.28;94594.63;5075340;28;20488;-78
2023/04/05 09:17:57;;;;;;;8.07;6.30;;;;;;;4.24;82.26;94601.50;5075576;28;20790;-77
2023/04/05 09:20:24;;;;;;;8.70;6.50;;;;;;;4.31;82.25;94590.63;5040670;28;20437;-78
2023/04/05 09:22:52;;;;;;;6.00;4.23;;;;;;;4.28;81.64;94598.59;5076076;28;20762;-78
2023/04/05 09:25:35;;;;;;;6.23;5.63;;;;;;;4.36;82.93;94598.13;5075172;28;20441;-78
2023/04/05 09:28:03;;;;;;;6.03;3.73;;;;;;;4.31;82.35;94598.41;5075623;28;20531;-77
2023/04/05 09:30:30;;;;;;;5.20;3.47;;;;;;;4.26;82.49;94595.28;5075198;28;20489;-78
2023/04/05 09:32:57;;;;;;;4.90;4.20;;;;;;;4.28;81.39;94596.00;5075367;28;20448;-77
2023/04/05 09:35:26;;;;;;;4.50;4.10;;;;;;;4.24;83.31;94593.72;5075375;28;20541;-78
2023/04/05 09:37:55;;;;;;;17.40;4.00;;;;;;;4.14;83.22;94588.28;5075371;28;20429;-78
2023/04/05 09:40:23;;;;;;;8.90;5.63;;;;;;;4.32;83.01;94588.84;5075320;28;20432;-77
2023/04/05 09:42:51;;;;;;;13.87;6.13;;;;;;;4.45;83.10;94588.91;5074910;28;20451;-78
2023/04/05 09:45:18;;;;;;;4.93;4.53;;;;;;;4.62;83.78;94588.59;5075103;28;20520;-78
2023/04/05 09:47:55;;;;;;;5.63;5.03;;;;;;;4.77;79.56;94597.97;5039946;28;20468;-77
2023/04/05 09:50:22;;;;;;;8.50;5.03;;;;;;;4.77;80.57;94590.19;5074913;28;20507;-78
2023/04/05 09:52:50;;;;;;;6.30;5.17;;;;;;;4.77;78.70;94578.97;5075720;28;20878;-77
2023/04/05 09:55:28;;;;;;;6.70;5.40;;;;;;;4.70;82.06;94588.94;5074778;28;20492;-78
2023/04/05 09:57:55;;;;;;;6.43;5.10;;;;;;;4.94;86.34;94578.66;5074293;28;20806;-77
2023/04/05 10:00:23;;;;;;;5.37;4.97;;;;;;;5.00;81.31;94586.03;5074439;28;20191;-78
2023/04/05 10:02:53;;;;;;;10.73;5.10;;;;;;;4.96;78.77;94589.78;5075264;28;20437;-77
2023/04/05 10:05:24;;;;;;;5.50;4.97;;;;;;;5.10;84.10;94581.03;5074406;28;20463;-77
2023/04/05 10:07:51;;;;;;;8.23;4.23;;;;;;;5.13;80.10;94594.66;5074729;28;20447;-78
2023/04/05 10:10:18;;;;;;;7.37;5.63;;;;;;;4.94;79.70;94582.09;5074826;28;20515;-77
2023/04/05 10:12:48;;;;;;;5.77;5.27;;;;;;;4.89;78.98;94578.13;5073313;28;20444;-78
2023/04/05 10:15:17;;;;;;;6.30;4.10;;;;;;;4.70;77.14;94586.34;5073294;28;20510;-77
2023/04/05 10:17:51;;;;;;;7.10;4.77;;;;;;;4.71;80.85;94595.81;5072791;28;20448;-77
2023/04/05 10:20:20;;;;;;;8.23;5.40;;;;;;;4.58;79.42;94590.56;5073283;28;20432;-77
2023/04/05 10:23:01;;;;;;;12.47;7.90;;;;;;;4.82;80.17;94595.06;5037574;28;20433;-77
2023/04/05 10:25:40;;;;;;;6.60;5.97;;;;;;;4.96;79.62;94597.59;5072802;28;20861;-75
2023/04/05 10:28:11;;;;;;;6.77;6.07;;;;;;;4.86;81.13;94593.94;5072499;28;20820;-80
2023/04/05 10:30:42;;;;;;;10.97;7.90;;;;;;;4.71;76.80;94593.19;5072355;28;20456;-78
2023/04/05 10:33:14;;;;;;;6.10;5.40;;;;;;;4.57;76.65;94598.47;5067863;28;20488;-77
2023/04/05 10:35:56;;;;;;;8.03;7.03;;;;;;;4.36;77.14;94592.94;5037020;28;20472;-78
2023/04/05 10:38:25;;;;;;;10.03;8.30;;;;;;;4.47;78.39;94603.44;5073569;28;20458;-76
2023/04/05 10:40:55;;;;;;;8.80;6.47;;;;;;;4.42;77.44;94584.75;5073166;28;20498;-76
2023/04/05 10:43:25;;;;;;;16.60;6.20;;;;;;;4.42;77.26;94591.69;5074078;28;20535;-76
2023/04/05 10:45:54;;;;;;;7.40;5.30;;;;;;;4.64;85.60;94599.75;5074226;28;20528;-78
2023/04/05 10:48:32;;;;;;;6.27;5.07;;;;;;;5.54;80.77;94589.22;5073966;28;20455;-78
2023/04/05 10:51:01;;;;;;;8.13;5.77;;;;;;;7.00;82.34;94589.91;5074028;28;20448;-76
2023/04/05 10:53:30;;;;;;;6.30;5.30;;;;;;;7.58;81.09;94598.50;5073883;28;20472;-78
2023/04/05 10:55:58;;;;;;;7.10;5.97;;;;;;;7.33;67.99;94603.00;5073661;28;20492;-76
2023/04/05 10:58:29;;;;;;;6.57;5.97;;;;;;;6.59;67.77;94601.63;5038100;28;20432;-77
2023/04/05 11:00:57;;;;;;;8.80;5.33;;;;;;;6.09;71.79;94602.72;5073160;28;20452;-77
2023/04/05 11:03:47;;;;;;;6.30;5.73;;;;;;;5.81;72.14;94602.06;5073815;28;20452;-77
2023/04/05 11:06:22;;;;;;;8.57;7.17;;;;;;;5.81;74.81;94612.47;5073855;28;20583;-76
2023/04/05 11:08:52;;;;;;;8.17;6.27;;;;;;;5.54;72.77;94601.41;5073403;28;20926;-76
2023/04/05 11:11:22;;;;;;;8.50;7.60;;;;;;;5.23;73.47;94607.88;5073660;28;20441;-75
2023/04/05 11:13:52;;;;;;;8.70;6.90;;;;;;;5.13;74.12;94609.44;5073897;28;20447;-76
2023/04/05 11:16:20;;;;;;;7.73;7.00;;;;;;;5.06;74.94;94590.81;5073343;28;20791;-77
2023/04/05 11:18:47;;;;;;;10.23;8.07;;;;;;;5.05;74.90;94602.16;5054535;28;20440;-76
2023/04/05 11:21:22;;;;;;;10.93;7.30;;;;;;;5.12;74.07;94597.38;5073768;28;20445;-77
2023/04/05 11:24:05;;;;;;;7.43;5.97;;;;;;;4.91;74.61;94604.84;5073530;28;20435;-77
2023/04/05 11:26:32;;;;;;;10.40;6.90;;;;;;;4.73;75.89;94606.94;5073537;28;20803;-76
2023/04/05 11:29:01;;;;;;;8.80;7.57;;;;;;;4.98;77.36;94601.75;5073369;28;20456;-77
2023/04/05 11:31:27;;;;;;;8.37;7.50;;;;;;;5.05;76.04;94603.94;5054270;28;20428;-76
2023/04/05 11:33:58;;;;;;;6.47;5.80;;;;;;;4.96;75.18;94608.81;5073484;28;20435;-77
2023/04/05 11:36:33;;;;;;;8.50;6.57;;;;;;;4.77;74.63;94600.59;5072630;28;20579;-77
2023/04/05 11:39:23;;;;;;;9.07;5.83;;;;;;;4.74;77.57;94595.59;5073089;28;20557;-76
2023/04/05 11:41:55;;;;;;;9.77;7.03;;;;;;;4.83;74.85;94605.38;5073078;28;20786;-77
2023/04/05 11:44:24;;;;;;;9.63;6.80;;;;;;;4.74;76.07;94602.56;5073004;28;20452;-77
2023/04/05 11:46:52;;;;;;;6.93;6.23;;;;;;;4.97;76.04;94609.66;5073175;28;20451;-77